Hlavní strana
METAR-TAF:

METAR-TAF

Letiště :

Tunis, Tunisko

zeměpisná šířka: 36-50N, zeměpisná délka: 010-14E, výška: 3 m

Aktuální stav počasí

Zpráva byla vytvořena před 24 minutami, v 01:30 UTC
Jižní vítr 5 kt, proměnlivý mezi jihovýchodním a jihojihozápadním
Teplota 9°C
Vlhkost vzduchu 87%
Tlak 1024 hPa
Viditelnost 10 km a více
Skoro jasno ve výšce 2600 ft

METAR: DTTA 190130Z 17005KT 130V200 9999 FEW026 09/07 Q1024

Čas: 02:54 (01:54 UTC)

Předpověď počasí

Zpráva byla vytvořena před 2 hodinami a 54 minutami, v 23:00 UTC
Předpověď platná od 19 v 00 UTC do 19 v 24 UTC
Jihojihozápadní vítr 4 kt
Viditelnost 10 km a více
Polojasno ve výšce 2600 ft
Změna
od 19 v 10 UTC do 19 v 12 UTC
Jihovýchodní vítr 12 kt

TAF: DTTA 182300Z 1900/1924 20004KT 9999 SCT026 BECMG 1910/1912 13012KT

Stav a předpovědi počasí z více než 4 000 letišť (zprávy METAR a TAF).

Červené a žluté tečky na mapě představují dostupné meteorologické stanice.

Když kurzor umístíte na tečku, zobrazí se název stanice.

Pak kliknutím zobrazíte stav a předpověď počasí.

Chcete-li změnit mapu, kliknutím na zelené tlačítko se znaménkem +mapu přiblížíte, kliknutím na zelené tlačítko se znaménkem – mapu oddálíte a kliknutím na zelené šipky přejdete na sousední mapy.


METAR-TAF: